createdAt,value
2019-02-06T00:00:37.400Z,0.12
2019-02-06T00:01:37.402Z,0.15
2019-02-06T00:02:37.408Z,-0.01
2019-02-06T00:03:37.377Z,0.14
2019-02-06T00:04:37.384Z,0.02
2019-02-06T00:05:37.386Z,0.12
2019-02-06T00:06:37.330Z,0.05
2019-02-06T00:07:37.350Z,0.04
2019-02-06T00:08:37.347Z,0.04
2019-02-06T00:09:37.300Z,-0.01
2019-02-06T00:10:37.308Z,0.05
2019-02-06T00:11:37.279Z,-0.07
2019-02-06T00:12:37.280Z,-0.04
2019-02-06T00:13:37.280Z,0.00
2019-02-06T00:14:37.383Z,-0.04
2019-02-06T00:15:37.249Z,-0.09
2019-02-06T00:16:37.251Z,-0.11
2019-02-06T00:17:37.220Z,-0.10
2019-02-06T00:18:37.226Z,-0.14
2019-02-06T00:19:37.198Z,-0.22
2019-02-06T00:20:37.209Z,-0.22
2019-02-06T00:21:37.177Z,-0.13
2019-02-06T00:22:37.162Z,-0.16
2019-02-06T00:23:37.147Z,-0.22
2019-02-06T00:24:37.142Z,-0.32
2019-02-06T00:25:37.134Z,-0.35
2019-02-06T00:26:37.161Z,-0.29
2019-02-06T00:27:37.153Z,-0.38
2019-02-06T00:28:37.093Z,-0.32
2019-02-06T00:29:37.086Z,-0.31
2019-02-06T00:30:37.093Z,-0.38
2019-02-06T00:31:37.062Z,-0.47
2019-02-06T00:32:37.099Z,-0.39
2019-02-06T00:33:37.041Z,-0.43
2019-02-06T00:34:37.030Z,-0.43
2019-02-06T00:35:37.027Z,-0.53
2019-02-06T00:36:37.022Z,-0.55
2019-02-06T00:37:37.022Z,-0.57
2019-02-06T00:38:37.080Z,-0.61
2019-02-06T00:39:36.983Z,-0.60
2019-02-06T00:40:36.993Z,-0.61
2019-02-06T00:41:36.959Z,-0.58
2019-02-06T00:42:36.974Z,-0.55
2019-02-06T00:43:36.940Z,-0.52
2019-02-06T00:44:36.975Z,-0.61
2019-02-06T00:45:36.928Z,-0.57
2019-02-06T00:46:36.903Z,-0.61
2019-02-06T00:47:36.893Z,-0.60
2019-02-06T00:48:36.883Z,-0.66
2019-02-06T00:49:36.869Z,-0.66
2019-02-06T00:50:36.951Z,-0.68
2019-02-06T00:51:36.864Z,-0.60
2019-02-06T00:52:36.856Z,-0.57
2019-02-06T00:53:36.833Z,-0.60
2019-02-06T00:54:36.827Z,-0.61
2019-02-06T00:55:36.821Z,-0.60
2019-02-06T00:56:36.833Z,-0.49
2019-02-06T00:57:36.812Z,-0.52
2019-02-06T00:58:36.827Z,-0.52
2019-02-06T00:59:36.768Z,-0.47
2019-02-06T01:00:36.759Z,-0.40
2019-02-06T01:01:36.763Z,-0.32
2019-02-06T01:02:36.773Z,-0.40
2019-02-06T01:03:36.743Z,-0.47
2019-02-06T01:04:36.716Z,-0.42
2019-02-06T01:05:38.721Z,-0.35
2019-02-06T01:06:36.708Z,-0.39
2019-02-06T01:07:36.699Z,-0.40
2019-02-06T01:08:36.823Z,-0.31
2019-02-06T01:09:36.654Z,-0.29
2019-02-06T01:10:36.647Z,-0.27
2019-02-06T01:11:36.645Z,-0.25
2019-02-06T01:12:36.646Z,-0.09
2019-02-06T01:13:36.618Z,-0.11
2019-02-06T01:14:36.641Z,-0.16
2019-02-06T01:15:36.600Z,-0.10
2019-02-06T01:16:36.589Z,-0.10
2019-02-06T01:17:36.581Z,-0.06
2019-02-06T01:18:36.559Z,-0.07
2019-02-06T01:19:36.568Z,-0.11
2019-02-06T01:20:36.582Z,-0.04
2019-02-06T01:21:36.532Z,-0.13
2019-02-06T01:22:36.528Z,-0.07
2019-02-06T01:23:36.522Z,-0.04
2019-02-06T01:24:36.501Z,-0.06
2019-02-06T01:25:36.518Z,-0.10
2019-02-06T01:26:36.506Z,-0.06
2019-02-06T01:27:36.474Z,-0.06
2019-02-06T01:28:36.455Z,-0.06
2019-02-06T01:29:36.460Z,-0.04
2019-02-06T01:30:36.447Z,-0.07
2019-02-06T01:31:36.427Z,-0.06
2019-02-06T01:32:36.503Z,0.04
2019-02-06T01:33:36.403Z,0.08
2019-02-06T01:34:36.391Z,0.11
2019-02-06T01:35:36.381Z,0.05
2019-02-06T01:36:36.381Z,0.12
2019-02-06T01:37:36.418Z,-0.01
2019-02-06T01:38:36.444Z,0.11
2019-02-06T01:39:36.347Z,0.11
2019-02-06T01:40:36.345Z,-0.07
2019-02-06T01:41:36.320Z,0.15
2019-02-06T01:42:36.318Z,0.02
2019-02-06T01:43:36.302Z,0.08
2019-02-06T01:44:36.335Z,0.00
2019-02-06T01:45:36.277Z,0.00
2019-02-06T01:46:36.290Z,0.17
2019-02-06T01:47:36.285Z,0.18
2019-02-06T01:48:36.253Z,0.15
2019-02-06T01:49:36.238Z,0.25
2019-02-06T01:50:36.409Z,0.17
2019-02-06T01:51:36.221Z,0.22
2019-02-06T01:52:36.198Z,0.20
2019-02-06T01:53:36.201Z,0.30
2019-02-06T01:54:36.198Z,0.45
2019-02-06T01:55:36.187Z,0.50
2019-02-06T01:56:36.262Z,0.45
2019-02-06T01:57:36.147Z,0.47
2019-02-06T01:58:36.143Z,0.50
2019-02-06T01:59:36.133Z,0.62
2019-02-06T02:00:36.128Z,0.47
2019-02-06T02:01:36.106Z,0.47
2019-02-06T02:02:36.131Z,0.60
2019-02-06T02:03:36.091Z,0.62
2019-02-06T02:04:36.075Z,0.56
2019-02-06T02:05:37.975Z,0.63
2019-02-06T02:06:36.066Z,0.62
2019-02-06T02:07:36.040Z,0.56
2019-02-06T02:08:36.073Z,0.69
2019-02-06T02:09:36.036Z,0.62
2019-02-06T02:10:36.026Z,0.62
2019-02-06T02:11:36.001Z,0.50
2019-02-06T02:12:35.998Z,0.64
2019-02-06T02:13:35.979Z,0.56
2019-02-06T02:14:36.135Z,0.47
2019-02-06T02:15:35.983Z,0.50
2019-02-06T02:16:35.948Z,0.50
2019-02-06T02:17:35.958Z,0.37
2019-02-06T02:18:35.938Z,0.45
2019-02-06T02:19:35.918Z,0.43
2019-02-06T02:20:35.985Z,0.33
2019-02-06T02:21:35.907Z,0.33
2019-02-06T02:22:35.895Z,0.44
2019-02-06T02:23:35.883Z,0.44
2019-02-06T02:24:35.868Z,0.43
2019-02-06T02:25:35.857Z,0.41
2019-02-06T02:26:35.879Z,0.48
2019-02-06T02:27:35.916Z,0.51
2019-02-06T02:28:35.827Z,0.41
2019-02-06T02:29:35.808Z,0.53
2019-02-06T02:30:35.806Z,0.45
2019-02-06T02:31:35.788Z,0.41
2019-02-06T02:32:35.828Z,0.47
2019-02-06T02:33:35.768Z,0.51
2019-02-06T02:34:35.760Z,0.41
2019-02-06T02:35:35.784Z,0.47
2019-02-06T02:36:35.760Z,0.47
2019-02-06T02:37:35.823Z,0.47
2019-02-06T02:38:35.743Z,0.53
2019-02-06T02:39:35.709Z,0.48
2019-02-06T02:40:35.709Z,0.48
2019-02-06T02:41:35.681Z,0.55
2019-02-06T02:42:35.681Z,0.41
2019-02-06T02:43:35.660Z,0.48
2019-02-06T02:44:35.688Z,0.45
2019-02-06T02:45:35.650Z,0.45
2019-02-06T02:46:35.632Z,0.44
2019-02-06T02:47:35.620Z,0.37
2019-02-06T02:48:35.601Z,0.45
2019-02-06T02:49:35.589Z,0.36
2019-02-06T02:50:35.780Z,0.36
2019-02-06T02:51:35.591Z,0.33
2019-02-06T02:52:35.579Z,0.35
2019-02-06T02:53:35.571Z,0.29
2019-02-06T02:54:35.559Z,0.23
2019-02-06T02:55:35.539Z,0.17
2019-02-06T02:56:35.567Z,0.15
2019-02-06T02:57:35.533Z,0.22
2019-02-06T02:58:35.507Z,0.30
2019-02-06T02:59:35.496Z,0.25
2019-02-06T03:00:35.489Z,0.37
2019-02-06T03:01:35.481Z,0.35
2019-02-06T03:02:35.646Z,0.30
2019-02-06T03:03:35.473Z,0.35
2019-02-06T03:04:35.439Z,0.43
2019-02-06T03:05:35.436Z,0.47
2019-02-06T03:06:35.433Z,0.50
2019-02-06T03:07:35.430Z,0.44
2019-02-06T03:08:35.471Z,0.47
2019-02-06T03:09:35.386Z,0.56
2019-02-06T03:10:35.385Z,0.60
2019-02-06T03:11:35.377Z,0.55
2019-02-06T03:12:35.365Z,0.55
2019-02-06T03:13:35.340Z,0.63
2019-02-06T03:14:35.396Z,0.53
2019-02-06T03:15:35.317Z,0.60
2019-02-06T03:16:35.309Z,0.62
2019-02-06T03:17:35.301Z,0.53
2019-02-06T03:18:35.294Z,0.63
2019-02-06T03:19:35.274Z,0.59
2019-02-06T03:20:35.426Z,0.51
2019-02-06T03:21:35.260Z,0.55
2019-02-06T03:22:35.263Z,0.51
2019-02-06T03:23:35.246Z,0.50
2019-02-06T03:24:35.232Z,0.59
2019-02-06T03:25:35.220Z,0.51
2019-02-06T03:26:35.296Z,0.60
2019-02-06T03:27:35.234Z,0.47
2019-02-06T03:28:35.190Z,0.47
2019-02-06T03:29:35.179Z,0.47
2019-02-06T03:30:35.176Z,0.43
2019-02-06T03:31:35.155Z,0.51
2019-02-06T03:32:35.202Z,0.51
2019-02-06T03:33:35.160Z,0.45
2019-02-06T03:34:35.136Z,0.44
2019-02-06T03:35:35.113Z,0.48
2019-02-06T03:36:40.453Z,0.47
2019-02-06T03:37:36.162Z,0.47
2019-02-06T03:38:35.079Z,0.43
2019-02-06T03:39:35.070Z,0.44
2019-02-06T03:40:35.054Z,0.44
2019-02-06T03:41:35.042Z,0.51
2019-02-06T03:42:35.027Z,0.44
2019-02-06T03:43:35.069Z,0.43
2019-02-06T03:44:35.144Z,0.45
2019-02-06T03:45:35.001Z,0.29
2019-02-06T03:46:35.007Z,0.36
2019-02-06T03:47:34.986Z,0.32
2019-02-06T03:48:35.002Z,0.33
2019-02-06T03:49:34.997Z,0.29
2019-02-06T03:50:34.954Z,0.22
2019-02-06T03:51:34.963Z,0.23
2019-02-06T03:52:34.934Z,0.27
2019-02-06T03:53:34.927Z,0.18
2019-02-06T03:54:34.916Z,0.20
2019-02-06T03:55:34.959Z,0.25
2019-02-06T03:56:34.902Z,0.17
2019-02-06T03:57:34.876Z,0.26
2019-02-06T03:58:34.866Z,0.17
2019-02-06T03:59:34.855Z,0.23
2019-02-06T04:00:34.880Z,0.33
2019-02-06T04:01:34.882Z,0.35
2019-02-06T04:02:34.842Z,0.33
2019-02-06T04:03:34.810Z,0.33
2019-02-06T04:04:34.797Z,0.32
2019-02-06T04:05:34.826Z,0.29
2019-02-06T04:06:34.789Z,0.30
2019-02-06T04:07:34.812Z,0.33
2019-02-06T04:08:34.763Z,0.33
2019-02-06T04:09:34.743Z,0.22
2019-02-06T04:10:34.738Z,0.37
2019-02-06T04:11:34.758Z,0.32
2019-02-06T04:12:34.713Z,0.32
2019-02-06T04:13:34.899Z,0.33
2019-02-06T04:14:34.702Z,0.36
2019-02-06T04:15:34.681Z,0.37
2019-02-06T04:16:34.677Z,0.33
2019-02-06T04:17:34.663Z,0.44
2019-02-06T04:18:34.654Z,0.47
2019-02-06T04:19:34.671Z,0.40
2019-02-06T04:20:34.628Z,0.44
2019-02-06T04:21:34.612Z,0.51
2019-02-06T04:22:34.634Z,0.55
2019-02-06T04:23:34.593Z,0.56
2019-02-06T04:24:34.587Z,0.63
2019-02-06T04:25:34.615Z,0.76
2019-02-06T04:26:34.589Z,0.63
2019-02-06T04:27:34.586Z,0.76
2019-02-06T04:28:34.554Z,0.84
2019-02-06T04:29:34.611Z,0.80
2019-02-06T04:30:34.517Z,0.88
2019-02-06T04:31:34.802Z,0.80
2019-02-06T04:32:34.509Z,0.84
2019-02-06T04:33:34.485Z,0.87
2019-02-06T04:34:34.482Z,0.90
2019-02-06T04:35:34.473Z,0.92
2019-02-06T04:36:34.467Z,0.96
2019-02-06T04:37:34.623Z,0.94
2019-02-06T04:38:34.430Z,0.82
2019-02-06T04:39:34.427Z,0.85
2019-02-06T04:40:34.408Z,0.82
2019-02-06T04:41:34.398Z,0.85
2019-02-06T04:42:34.488Z,0.80
2019-02-06T04:43:34.404Z,0.85
2019-02-06T04:44:34.385Z,0.80
2019-02-06T04:45:34.366Z,0.67
2019-02-06T04:46:34.344Z,0.69
2019-02-06T04:47:34.348Z,0.67
2019-02-06T04:48:34.322Z,0.53
2019-02-06T04:49:34.364Z,0.62
2019-02-06T04:50:34.301Z,0.56
2019-02-06T04:51:34.296Z,0.51
2019-02-06T04:52:34.291Z,0.48
2019-02-06T04:53:34.283Z,0.45
2019-02-06T04:54:34.290Z,0.45
2019-02-06T04:55:34.338Z,0.41
2019-02-06T04:56:34.277Z,0.30
2019-02-06T04:57:34.247Z,0.33
2019-02-06T04:58:34.226Z,0.32
2019-02-06T04:59:34.219Z,0.18
2019-02-06T05:00:34.197Z,0.27
2019-02-06T05:01:34.230Z,0.20
2019-02-06T05:02:34.186Z,0.15
2019-02-06T05:03:34.165Z,0.12
2019-02-06T05:04:34.152Z,0.14
2019-02-06T05:05:34.155Z,0.20
2019-02-06T05:06:34.135Z,0.09
2019-02-06T05:07:34.179Z,0.18
2019-02-06T05:08:34.111Z,0.02
2019-02-06T05:09:34.102Z,0.02
2019-02-06T05:10:34.113Z,0.04
2019-02-06T05:11:34.077Z,-0.01
2019-02-06T05:12:34.071Z,-0.03
2019-02-06T05:13:34.093Z,-0.11
2019-02-06T05:14:34.054Z,-0.07
2019-02-06T05:15:34.038Z,-0.16
2019-02-06T05:16:34.034Z,-0.21
2019-02-06T05:17:34.016Z,-0.16
2019-02-06T05:18:34.007Z,-0.20
2019-02-06T05:19:34.031Z,-0.20
2019-02-06T05:20:33.985Z,-0.29
2019-02-06T05:21:34.006Z,-0.32
2019-02-06T05:22:33.973Z,-0.34
2019-02-06T05:23:33.952Z,-0.22
2019-02-06T05:24:33.944Z,-0.34
2019-02-06T05:25:34.075Z,-0.31
2019-02-06T05:26:33.938Z,-0.31
2019-02-06T05:27:33.915Z,-0.32
2019-02-06T05:28:33.914Z,-0.35
2019-02-06T05:29:33.889Z,-0.31
2019-02-06T05:30:33.881Z,-0.34
2019-02-06T05:31:33.895Z,-0.22
2019-02-06T05:32:33.913Z,-0.11
2019-02-06T05:33:33.845Z,-0.03
2019-02-06T05:34:33.849Z,0.00
2019-02-06T05:35:33.824Z,0.00
2019-02-06T05:36:33.812Z,-0.04
2019-02-06T05:37:33.846Z,-0.03
2019-02-06T05:38:33.795Z,-0.03
2019-02-06T05:39:33.794Z,-0.07
2019-02-06T05:40:33.781Z,-0.09
2019-02-06T05:41:33.764Z,-0.09
2019-02-06T05:42:33.752Z,-0.07
2019-02-06T05:43:33.787Z,-0.16
2019-02-06T05:44:33.733Z,-0.11
2019-02-06T05:45:33.720Z,-0.17
2019-02-06T05:46:33.715Z,-0.20
2019-02-06T05:47:33.742Z,-0.20
2019-02-06T05:48:33.685Z,-0.07
2019-02-06T05:49:33.710Z,-0.09
2019-02-06T05:50:33.664Z,0.00
2019-02-06T05:51:33.653Z,0.02
2019-02-06T05:52:33.653Z,0.00
2019-02-06T05:53:33.690Z,-0.01
2019-02-06T05:54:33.628Z,0.15
2019-02-06T05:55:33.662Z,0.11
2019-02-06T05:56:33.613Z,0.23
2019-02-06T05:57:33.596Z,0.41
2019-02-06T05:58:33.590Z,0.59
2019-02-06T05:59:33.567Z,0.56
2019-02-06T06:00:33.559Z,0.69
2019-02-06T06:01:33.604Z,0.66
2019-02-06T06:02:33.537Z,0.62
2019-02-06T06:03:33.528Z,0.73
2019-02-06T06:04:33.524Z,0.64
2019-02-06T06:05:33.503Z,0.67
2019-02-06T06:06:33.495Z,0.55
2019-02-06T06:07:44.797Z,0.53
2019-02-06T06:08:34.484Z,0.64
2019-02-06T06:09:33.646Z,0.72
2019-02-06T06:10:33.487Z,0.92
2019-02-06T06:11:33.459Z,1.21
2019-02-06T06:12:33.436Z,1.36
2019-02-06T06:13:33.478Z,1.35
2019-02-06T06:14:33.412Z,1.52
2019-02-06T06:15:33.401Z,1.52
2019-02-06T06:16:33.402Z,1.62
2019-02-06T06:17:33.387Z,1.80
2019-02-06T06:18:33.380Z,1.85
2019-02-06T06:19:33.421Z,1.81
2019-02-06T06:20:33.351Z,1.69
2019-02-06T06:21:33.335Z,1.64
2019-02-06T06:22:33.334Z,1.49
2019-02-06T06:23:33.313Z,1.41
2019-02-06T06:24:33.311Z,1.21
2019-02-06T06:25:33.322Z,1.18
2019-02-06T06:26:33.288Z,1.02
2019-02-06T06:27:33.270Z,1.03
2019-02-06T06:28:33.270Z,0.91
2019-02-06T06:29:33.249Z,0.90
2019-02-06T06:30:33.243Z,0.74
2019-02-06T06:31:33.270Z,0.64
2019-02-06T06:32:33.222Z,0.63
2019-02-06T06:33:33.208Z,0.55
2019-02-06T06:34:33.207Z,0.59
2019-02-06T06:35:33.205Z,0.60
2019-02-06T06:36:33.177Z,0.45
2019-02-06T06:37:33.229Z,0.43
2019-02-06T06:38:33.164Z,0.55
2019-02-06T06:39:33.144Z,0.64
2019-02-06T06:40:33.139Z,1.03
2019-02-06T06:41:33.140Z,1.09
2019-02-06T06:42:33.127Z,1.10
2019-02-06T06:43:33.153Z,1.10
2019-02-06T06:44:33.093Z,1.12
2019-02-06T06:45:33.228Z,1.10
2019-02-06T06:46:33.119Z,1.09
2019-02-06T06:47:33.072Z,1.03
2019-02-06T06:48:33.047Z,1.02
2019-02-06T06:49:33.097Z,0.91
2019-02-06T06:50:33.029Z,0.88
2019-02-06T06:51:33.058Z,0.72
2019-02-06T06:52:33.008Z,0.84
2019-02-06T06:53:32.995Z,0.81
2019-02-06T06:54:32.992Z,0.81
2019-02-06T06:55:35.278Z,0.74
2019-02-06T06:56:32.977Z,0.70
2019-02-06T06:57:33.037Z,0.67
2019-02-06T06:58:33.009Z,0.67
2019-02-06T06:59:32.936Z,0.56
2019-02-06T07:00:33.001Z,0.45
2019-02-06T07:01:32.964Z,0.45
2019-02-06T07:02:32.957Z,0.44
2019-02-06T07:03:32.898Z,0.32
2019-02-06T07:04:32.944Z,0.36
2019-02-06T07:05:32.895Z,0.45
2019-02-06T07:06:32.862Z,0.50
2019-02-06T07:07:32.912Z,0.60
2019-02-06T07:08:32.866Z,0.64
2019-02-06T07:09:32.924Z,0.74
2019-02-06T07:10:32.821Z,0.81
2019-02-06T07:11:32.804Z,0.66
2019-02-06T07:12:32.792Z,0.64
2019-02-06T07:13:32.906Z,0.67
2019-02-06T07:14:33.105Z,0.66
2019-02-06T07:15:32.761Z,0.69
2019-02-06T07:16:32.754Z,0.64
2019-02-06T07:17:32.740Z,0.72
2019-02-06T07:18:32.745Z,0.67
2019-02-06T07:19:32.767Z,0.63
2019-02-06T07:20:32.708Z,0.70
2019-02-06T07:21:32.696Z,0.73
2019-02-06T07:22:32.691Z,0.76
2019-02-06T07:23:32.735Z,0.99
2019-02-06T07:24:32.667Z,0.98
2019-02-06T07:25:32.687Z,0.98
2019-02-06T07:26:32.666Z,1.16
2019-02-06T07:27:32.632Z,1.10
2019-02-06T07:28:32.626Z,1.10
2019-02-06T07:29:32.697Z,1.09
2019-02-06T07:30:32.603Z,1.12
2019-02-06T07:31:32.633Z,0.99
2019-02-06T07:32:32.591Z,1.02
2019-02-06T07:33:32.581Z,1.05
2019-02-06T07:34:32.560Z,0.98
2019-02-06T07:35:32.550Z,0.96
2019-02-06T07:36:32.540Z,1.03
2019-02-06T07:37:32.560Z,1.02
2019-02-06T07:38:32.519Z,1.00
2019-02-06T07:39:32.510Z,1.10
2019-02-06T07:40:32.495Z,1.05
2019-02-06T07:41:32.497Z,0.96
2019-02-06T07:42:32.493Z,1.03
2019-02-06T07:43:32.504Z,1.02
2019-02-06T07:44:32.454Z,0.92
2019-02-06T07:45:32.446Z,1.06
2019-02-06T07:46:32.438Z,0.90
2019-02-06T07:47:32.426Z,0.92
2019-02-06T07:48:32.411Z,0.96
2019-02-06T07:49:32.461Z,0.92
2019-02-06T07:50:32.418Z,0.91
2019-02-06T07:51:32.378Z,0.88
2019-02-06T07:52:32.376Z,0.92
2019-02-06T07:53:32.371Z,0.92
2019-02-06T07:54:32.372Z,1.00
2019-02-06T07:55:32.392Z,0.96
2019-02-06T07:56:32.379Z,1.00
2019-02-06T07:57:32.320Z,1.05
2019-02-06T07:58:32.306Z,1.00
2019-02-06T07:59:32.306Z,1.09
2019-02-06T08:00:32.283Z,1.18
2019-02-06T08:01:32.311Z,1.18
2019-02-06T08:02:32.262Z,1.27
2019-02-06T08:03:32.252Z,1.26
2019-02-06T08:04:32.248Z,1.24
2019-02-06T08:05:32.239Z,1.31
2019-02-06T08:06:32.228Z,1.36
2019-02-06T08:07:32.252Z,1.44
2019-02-06T08:08:36.291Z,1.41
2019-02-06T08:09:32.186Z,1.44
2019-02-06T08:10:32.193Z,1.49
2019-02-06T08:11:32.170Z,1.44
2019-02-06T08:12:32.155Z,1.53
2019-02-06T08:13:32.204Z,1.60
2019-02-06T08:14:32.133Z,1.63
2019-02-06T08:15:32.132Z,1.63
2019-02-06T08:16:32.122Z,1.60
2019-02-06T08:17:32.120Z,1.62
2019-02-06T08:18:32.090Z,1.62
2019-02-06T08:19:32.123Z,1.71
2019-02-06T08:20:32.150Z,1.59
2019-02-06T08:21:32.142Z,1.75
2019-02-06T08:22:32.156Z,1.82
2019-02-06T08:23:32.166Z,1.74
2019-02-06T08:24:32.024Z,1.71
2019-02-06T08:25:32.067Z,1.75
2019-02-06T08:26:32.004Z,1.85
2019-02-06T08:27:31.993Z,1.81
2019-02-06T08:28:31.986Z,1.99
2019-02-06T08:29:31.976Z,1.99
2019-02-06T08:30:31.978Z,1.99
2019-02-06T08:31:32.017Z,2.06
2019-02-06T08:32:31.939Z,2.06
2019-02-06T08:33:31.931Z,2.07
2019-02-06T08:34:31.920Z,2.11
2019-02-06T08:35:31.933Z,2.10
2019-02-06T08:36:31.939Z,2.29
2019-02-06T08:37:31.913Z,2.29
2019-02-06T08:38:31.902Z,2.39
2019-02-06T08:39:31.873Z,2.43
2019-02-06T08:40:31.870Z,2.39
2019-02-06T08:41:31.840Z,2.57
2019-02-06T08:42:31.835Z,2.61
2019-02-06T08:43:31.882Z,2.68
2019-02-06T08:44:31.811Z,2.86
2019-02-06T08:45:31.799Z,3.08
2019-02-06T08:46:31.791Z,3.45
2019-02-06T08:47:31.775Z,3.70
2019-02-06T08:48:31.779Z,3.82
2019-02-06T08:49:31.806Z,3.96
2019-02-06T08:50:31.802Z,4.17
2019-02-06T08:51:31.734Z,4.30
2019-02-06T08:52:31.723Z,4.54
2019-02-06T08:53:31.713Z,4.57
2019-02-06T08:54:31.711Z,4.78
2019-02-06T08:55:31.719Z,4.82
2019-02-06T08:56:31.681Z,4.94
2019-02-06T08:57:31.667Z,4.98
2019-02-06T08:58:31.656Z,5.01
2019-02-06T08:59:31.688Z,5.09
2019-02-06T09:00:31.657Z,5.11
2019-02-06T09:01:31.673Z,5.16
2019-02-06T09:02:31.617Z,5.18
2019-02-06T09:03:31.602Z,5.11
2019-02-06T09:04:31.591Z,5.24
2019-02-06T09:05:31.580Z,5.25
2019-02-06T09:06:31.584Z,5.24
2019-02-06T09:07:31.767Z,5.27
2019-02-06T09:08:31.550Z,5.22
2019-02-06T09:09:31.649Z,5.27
2019-02-06T09:10:31.527Z,5.32
2019-02-06T09:11:31.519Z,5.39
2019-02-06T09:12:31.517Z,5.39
2019-02-06T09:13:31.522Z,5.40
2019-02-06T09:14:31.486Z,5.37
2019-02-06T09:15:31.474Z,5.44
2019-02-06T09:16:31.473Z,5.48
2019-02-06T09:17:31.450Z,5.34
2019-02-06T09:18:31.443Z,5.44
2019-02-06T09:19:31.576Z,5.39
2019-02-06T09:20:31.429Z,5.48
2019-02-06T09:21:31.422Z,5.39
2019-02-06T09:22:31.408Z,5.48
2019-02-06T09:23:31.385Z,5.30
2019-02-06T09:24:31.505Z,5.36
2019-02-06T09:25:31.402Z,5.30
2019-02-06T09:26:35.457Z,5.27
2019-02-06T09:27:31.382Z,5.32
2019-02-06T09:28:31.344Z,5.39
2019-02-06T09:29:31.321Z,5.39
2019-02-06T09:30:31.309Z,5.48
2019-02-06T09:31:31.348Z,5.52
2019-02-06T09:32:31.289Z,5.59
2019-02-06T09:33:31.284Z,5.70
2019-02-06T09:34:31.266Z,5.57
2019-02-06T09:35:31.260Z,5.69
2019-02-06T09:36:31.249Z,5.67
2019-02-06T09:37:31.292Z,5.73
2019-02-06T09:38:31.245Z,5.77
2019-02-06T09:39:31.214Z,5.84
2019-02-06T09:40:31.221Z,5.90
2019-02-06T09:41:31.268Z,5.93
2019-02-06T09:42:31.216Z,6.03
2019-02-06T09:43:31.229Z,5.93
2019-02-06T09:44:31.160Z,5.95
2019-02-06T09:45:31.160Z,5.97
2019-02-06T09:46:31.156Z,5.90
2019-02-06T09:47:31.146Z,5.87
2019-02-06T09:48:31.131Z,6.08
2019-02-06T09:49:31.158Z,6.05
2019-02-06T09:50:31.115Z,6.06
2019-02-06T09:51:31.092Z,6.09
2019-02-06T09:52:31.083Z,6.09
2019-02-06T09:53:31.082Z,6.08
2019-02-06T09:54:31.051Z,6.19
2019-02-06T09:55:31.125Z,6.28
2019-02-06T09:56:31.034Z,6.16
2019-02-06T09:57:31.017Z,6.21
2019-02-06T09:58:31.035Z,6.35
2019-02-06T09:59:30.996Z,6.35
2019-02-06T10:00:30.986Z,6.37
2019-02-06T10:01:31.006Z,6.49
2019-02-06T10:02:30.968Z,6.50
2019-02-06T10:03:30.966Z,6.57
2019-02-06T10:04:30.942Z,6.64
2019-02-06T10:05:30.932Z,6.64
2019-02-06T10:06:30.920Z,6.70
2019-02-06T10:07:30.940Z,6.79
2019-02-06T10:08:30.900Z,6.79
2019-02-06T10:09:30.902Z,6.92
2019-02-06T10:10:30.875Z,7.01
2019-02-06T10:11:30.869Z,7.01
2019-02-06T10:12:30.866Z,7.01
2019-02-06T10:13:30.894Z,7.16
2019-02-06T10:14:30.832Z,7.28
2019-02-06T10:15:30.838Z,7.33
2019-02-06T10:16:30.816Z,7.39
2019-02-06T10:17:30.801Z,7.49
2019-02-06T10:18:30.791Z,7.54
2019-02-06T10:19:30.822Z,7.69
2019-02-06T10:20:30.767Z,7.61
2019-02-06T10:21:30.769Z,7.76
2019-02-06T10:22:30.768Z,7.73
2019-02-06T10:23:30.735Z,7.78
2019-02-06T10:24:30.722Z,7.81
2019-02-06T10:25:30.751Z,7.76
2019-02-06T10:26:30.776Z,7.77
2019-02-06T10:27:30.694Z,7.77
2019-02-06T10:28:30.698Z,7.73
2019-02-06T10:29:30.670Z,7.77
2019-02-06T10:30:30.664Z,7.77
2019-02-06T10:31:32.859Z,7.76
2019-02-06T10:32:30.637Z,7.60
2019-02-06T10:33:30.624Z,7.60
2019-02-06T10:34:30.633Z,7.50
2019-02-06T10:35:30.610Z,7.46
2019-02-06T10:36:30.591Z,7.44
2019-02-06T10:37:30.629Z,7.54
2019-02-06T10:38:30.569Z,7.39
2019-02-06T10:39:34.678Z,7.46
2019-02-06T10:40:30.559Z,7.34
2019-02-06T10:41:30.536Z,7.37
2019-02-06T10:42:30.525Z,7.50
2019-02-06T10:43:32.788Z,7.44
2019-02-06T10:44:31.502Z,7.44
2019-02-06T10:45:30.493Z,7.49
2019-02-06T10:46:30.492Z,7.57
2019-02-06T10:47:30.474Z,7.64
2019-02-06T10:48:30.463Z,7.66
2019-02-06T10:49:30.499Z,7.80
2019-02-06T10:50:30.460Z,7.87
2019-02-06T10:51:30.459Z,7.91
2019-02-06T10:52:30.457Z,7.87
2019-02-06T10:53:30.405Z,7.92
2019-02-06T10:54:30.397Z,7.95
2019-02-06T10:55:30.539Z,7.99
2019-02-06T10:56:30.373Z,8.05
2019-02-06T10:57:30.366Z,8.06
2019-02-06T10:58:30.385Z,8.06
2019-02-06T10:59:30.341Z,8.04
2019-02-06T11:00:30.337Z,8.04
2019-02-06T11:01:30.356Z,8.06
2019-02-06T11:02:30.317Z,8.06
2019-02-06T11:03:30.306Z,8.06
2019-02-06T11:04:30.366Z,7.99
2019-02-06T11:05:30.279Z,8.12
2019-02-06T11:06:30.263Z,8.10
2019-02-06T11:07:30.457Z,7.98
2019-02-06T11:08:30.254Z,8.10
2019-02-06T11:09:30.234Z,8.13
2019-02-06T11:10:30.252Z,8.01
2019-02-06T11:11:30.216Z,8.13
2019-02-06T11:12:30.208Z,8.19
2019-02-06T11:13:30.260Z,8.24
2019-02-06T11:14:30.184Z,8.28
2019-02-06T11:15:30.203Z,8.24
2019-02-06T11:16:30.163Z,8.31
2019-02-06T11:17:30.177Z,8.29
2019-02-06T11:18:30.141Z,8.28
2019-02-06T11:19:30.175Z,8.28
2019-02-06T11:20:30.126Z,8.29
2019-02-06T11:21:30.111Z,8.42
2019-02-06T11:22:30.088Z,8.44
2019-02-06T11:23:30.126Z,8.55
2019-02-06T11:24:30.070Z,8.56
2019-02-06T11:25:30.096Z,8.63
2019-02-06T11:26:30.048Z,8.56
2019-02-06T11:27:30.038Z,8.57
2019-02-06T11:28:30.030Z,8.59
2019-02-06T11:29:30.033Z,8.68
2019-02-06T11:30:30.002Z,8.67
2019-02-06T11:31:30.258Z,8.72
2019-02-06T11:32:29.992Z,8.88
2019-02-06T11:33:29.970Z,8.89
2019-02-06T11:34:29.962Z,8.89
2019-02-06T11:35:29.965Z,8.99
2019-02-06T11:36:29.943Z,9.01
2019-02-06T11:37:29.957Z,9.06
2019-02-06T11:38:29.921Z,9.03
2019-02-06T11:39:29.916Z,9.14
2019-02-06T11:40:29.905Z,9.09
2019-02-06T11:41:29.916Z,9.12
2019-02-06T11:42:29.878Z,9.12
2019-02-06T11:43:32.041Z,9.14
2019-02-06T11:44:29.853Z,9.14
2019-02-06T11:45:29.843Z,9.16
2019-02-06T11:46:29.834Z,9.18
2019-02-06T11:47:29.848Z,9.12
2019-02-06T11:48:29.812Z,9.14
2019-02-06T11:49:29.836Z,9.12
2019-02-06T11:50:29.788Z,9.16
2019-02-06T11:51:29.781Z,9.12
2019-02-06T11:52:29.764Z,9.18
2019-02-06T11:53:29.786Z,9.15
2019-02-06T11:54:29.743Z,9.27
2019-02-06T11:55:29.783Z,9.37
2019-02-06T11:56:29.725Z,9.40
2019-02-06T11:57:29.715Z,9.45
2019-02-06T11:58:29.704Z,9.42
2019-02-06T11:59:29.707Z,9.42
2019-02-06T12:00:29.678Z,9.40
2019-02-06T12:01:29.720Z,9.44
2019-02-06T12:02:37.051Z,9.63
2019-02-06T12:03:30.651Z,9.57
2019-02-06T12:04:29.651Z,9.65
2019-02-06T12:05:29.661Z,9.62
2019-02-06T12:06:29.620Z,9.72
2019-02-06T12:07:29.632Z,9.75
2019-02-06T12:08:31.197Z,9.78
2019-02-06T12:09:29.590Z,9.84
2019-02-06T12:10:29.573Z,9.85
2019-02-06T12:11:29.577Z,9.87
2019-02-06T12:12:29.548Z,9.88
2019-02-06T12:13:29.572Z,9.87
2019-02-06T12:14:29.528Z,9.96
2019-02-06T12:15:29.523Z,10.02
2019-02-06T12:16:29.723Z,9.98
2019-02-06T12:17:29.510Z,9.93
2019-02-06T12:18:29.485Z,9.98
2019-02-06T12:19:29.538Z,10.05
2019-02-06T12:20:29.465Z,10.08
2019-02-06T12:21:29.462Z,10.09
2019-02-06T12:22:29.443Z,10.16
2019-02-06T12:23:32.193Z,10.28
2019-02-06T12:24:29.418Z,10.26
2019-02-06T12:25:29.457Z,10.26
2019-02-06T12:26:29.398Z,10.23
2019-02-06T12:27:29.392Z,10.20
2019-02-06T12:28:29.378Z,10.30
2019-02-06T12:29:29.438Z,10.36
2019-02-06T12:30:29.354Z,10.38
2019-02-06T12:31:29.387Z,10.41
2019-02-06T12:32:29.333Z,10.39
2019-02-06T12:33:29.324Z,10.39
2019-02-06T12:34:29.312Z,10.28
2019-02-06T12:35:29.373Z,10.30
2019-02-06T12:36:29.303Z,10.31
2019-02-06T12:37:29.324Z,10.39
2019-02-06T12:38:29.277Z,10.38
2019-02-06T12:39:29.306Z,10.46
2019-02-06T12:40:29.258Z,10.42
2019-02-06T12:41:29.320Z,10.30
2019-02-06T12:42:29.224Z,10.34
2019-02-06T12:43:29.294Z,10.34
2019-02-06T12:44:29.208Z,10.39
2019-02-06T12:45:29.191Z,10.28
2019-02-06T12:46:29.199Z,10.35
2019-02-06T12:47:29.176Z,10.42
2019-02-06T12:48:29.178Z,10.48
2019-02-06T12:49:29.327Z,10.49
2019-02-06T12:50:29.145Z,10.39
2019-02-06T12:51:29.128Z,10.31
2019-02-06T12:52:29.144Z,10.27
2019-02-06T12:53:29.104Z,10.26
2019-02-06T12:54:29.110Z,10.26
2019-02-06T12:55:29.165Z,10.34
2019-02-06T12:56:29.092Z,10.42
2019-02-06T12:57:36.352Z,10.38
2019-02-06T12:58:30.057Z,10.55
2019-02-06T12:59:29.049Z,10.49
2019-02-06T13:00:29.034Z,10.60
2019-02-06T13:01:29.124Z,10.57
2019-02-06T13:02:29.012Z,10.54
2019-02-06T13:03:29.008Z,10.48
2019-02-06T13:04:28.988Z,10.54
2019-02-06T13:05:28.975Z,10.55
2019-02-06T13:06:28.967Z,10.68
2019-02-06T13:07:29.027Z,10.58
2019-02-06T13:08:28.947Z,10.52
2019-02-06T13:09:28.928Z,10.49
2019-02-06T13:10:34.058Z,10.48
2019-02-06T13:11:29.913Z,10.55
2019-02-06T13:12:28.903Z,10.57